Time;durP1;ratioP1;P1;durP2;ratioP2;P2;SDS_P1;SDS_P2;PMS_P1;PMS_P2;Temp;Humidity;BMP_temperature;BMP_pressure;BME280_temperature;BME280_humidity;BME280_pressure;Samples;Min_cycle;Max_cycle;Signal;HPM_P1;HPM_P2
2022/07/26 00:01:21;;;;;;;6.50;5.20;;;;;;;19.05;78.21;98275.04;105239;1271;62128;-73
2022/07/26 00:03:53;;;;;;;5.60;4.80;;;;;;;19.04;78.19;98269.59;105352;1270;62187;-73
2022/07/26 00:06:20;;;;;;;5.40;4.80;;;;;;;19.02;78.44;98266.01;105241;1271;62045;-72
2022/07/26 00:08:47;;;;;;;6.90;5.10;;;;;;;18.99;78.74;98268.11;105243;1270;76094;-72
2022/07/26 00:11:14;;;;;;;5.80;4.80;;;;;;;18.98;79.33;98268.45;105303;1271;70277;-73
2022/07/26 00:13:40;;;;;;;5.80;5.30;;;;;;;18.98;79.53;98265.21;105123;1271;72286;-73
2022/07/26 00:16:06;;;;;;;7.00;5.10;;;;;;;18.99;80.02;98260.80;105328;1271;62161;-72
2022/07/26 00:18:32;;;;;;;5.10;4.60;;;;;;;19.00;80.04;98260.52;105593;1271;62228;-72
2022/07/26 00:21:00;;;;;;;7.80;6.10;;;;;;;19.02;80.68;98259.42;105663;1271;62098;-73
2022/07/26 00:23:26;;;;;;;6.60;5.40;;;;;;;19.02;80.73;98262.47;105513;1271;62181;-73
2022/07/26 00:25:52;;;;;;;7.30;5.30;;;;;;;18.98;81.40;98259.44;105226;1271;62199;-73
2022/07/26 00:28:18;;;;;;;6.20;5.10;;;;;;;18.94;81.79;98256.36;105292;1271;62059;-74
2022/07/26 00:30:45;;;;;;;6.80;5.50;;;;;;;18.89;82.04;98254.95;105248;1271;62186;-73
2022/07/26 00:33:11;;;;;;;7.30;5.40;;;;;;;18.85;82.21;98249.45;105246;1271;62023;-73
2022/07/26 00:35:37;;;;;;;7.40;5.20;;;;;;;18.83;82.65;98250.09;105224;1271;62161;-73
2022/07/26 00:38:04;;;;;;;5.90;5.30;;;;;;;18.81;82.96;98249.84;105241;1271;62290;-73
2022/07/26 00:40:30;;;;;;;5.80;5.20;;;;;;;18.81;83.29;98247.55;105226;1271;62123;-72
2022/07/26 00:42:56;;;;;;;6.50;5.40;;;;;;;18.80;83.53;98247.27;105028;1271;62129;-74
2022/07/26 00:45:22;;;;;;;5.70;5.20;;;;;;;18.80;83.69;98244.75;105239;1270;62184;-72
2022/07/26 00:47:49;;;;;;;7.20;5.50;;;;;;;18.80;84.06;98243.51;105225;1271;62243;-73
2022/07/26 00:50:17;;;;;;;7.50;5.50;;;;;;;18.79;84.42;98240.39;105207;1271;62106;-72
2022/07/26 00:52:45;;;;;;;7.20;5.60;;;;;;;18.79;84.86;98238.11;105221;1271;62066;-73
2022/07/26 00:55:13;;;;;;;5.60;4.80;;;;;;;18.78;84.97;98235.32;105252;1271;62149;-72
2022/07/26 00:57:40;;;;;;;5.60;5.00;;;;;;;18.78;85.00;98238.70;105345;1271;76972;-72
2022/07/26 01:00:16;;;;;;;6.80;5.40;;;;;;;18.80;85.06;98236.34;105231;1271;68334;-74
2022/07/26 01:02:43;;;;;;;7.00;5.20;;;;;;;18.82;85.30;98229.63;105275;1271;73231;-73
2022/07/26 01:05:09;;;;;;;7.50;6.20;;;;;;;18.81;85.34;98218.69;105295;1271;62130;-73
2022/07/26 01:07:38;;;;;;;5.70;5.20;;;;;;;18.81;85.40;98218.86;105255;1271;62151;-72
2022/07/26 01:10:11;;;;;;;7.50;5.90;;;;;;;18.81;85.65;98220.04;105329;1271;76947;-72
2022/07/26 01:12:43;;;;;;;6.40;5.50;;;;;;;18.79;85.74;98217.23;105268;1271;67434;-73
2022/07/26 01:15:11;;;;;;;9.30;8.30;;;;;;;18.77;86.00;98213.85;105236;1271;74293;-73
2022/07/26 01:17:38;;;;;;;6.20;5.40;;;;;;;18.74;86.49;98211.06;104990;1274;62427;-73
2022/07/26 01:20:06;;;;;;;6.10;5.50;;;;;;;18.73;86.60;98209.90;104916;1274;62169;-72
2022/07/26 01:22:32;;;;;;;7.90;5.80;;;;;;;18.72;87.29;98204.23;104839;1276;76284;-73
2022/07/26 01:24:58;;;;;;;6.10;5.40;;;;;;;18.72;87.46;98200.00;104898;1274;62095;-73
2022/07/26 01:27:24;;;;;;;6.10;5.50;;;;;;;18.72;87.68;98201.25;104893;1274;62282;-73
2022/07/26 01:29:51;;;;;;;6.30;5.40;;;;;;;18.70;87.72;98202.38;104875;1274;62162;-73
2022/07/26 01:32:18;;;;;;;6.00;5.40;;;;;;;18.67;88.23;98199.58;104935;1274;62142;-74
2022/07/26 01:34:44;;;;;;;6.40;5.10;;;;;;;18.65;88.45;98195.71;104907;1274;62312;-73
2022/07/26 01:37:10;;;;;;;7.20;5.80;;;;;;;18.62;88.82;98195.48;104684;1274;61983;-73
2022/07/26 01:39:36;;;;;;;6.80;5.40;;;;;;;18.59;88.96;98195.33;104888;1274;62340;-74
2022/07/26 01:42:04;;;;;;;5.90;5.30;;;;;;;18.57;89.44;98189.02;104900;1274;62235;-73
2022/07/26 01:44:30;;;;;;;6.70;5.80;;;;;;;18.57;89.60;98190.64;104901;1274;64070;-73
2022/07/26 01:46:56;;;;;;;7.20;5.50;;;;;;;18.55;89.88;98185.52;104897;1274;62254;-73
2022/07/26 01:49:22;;;;;;;9.10;6.70;;;;;;;18.53;90.21;98184.14;104954;1271;62199;-72
2022/07/26 01:51:48;;;;;;;7.40;6.40;;;;;;;18.52;90.06;98183.88;105237;1271;62801;-73
2022/07/26 01:54:14;;;;;;;7.50;6.10;;;;;;;18.50;90.11;98181.25;105037;1272;62289;-73
2022/07/26 01:56:42;;;;;;;7.50;5.90;;;;;;;18.47;90.19;98178.15;105293;1271;62305;-73
2022/07/26 01:59:08;;;;;;;7.70;6.00;;;;;;;18.45;89.95;98175.80;105256;1269;70147;-73
2022/07/26 02:01:34;;;;;;;8.90;7.10;;;;;;;18.43;90.05;98173.83;105244;1268;62190;-73
2022/07/26 02:04:00;;;;;;;7.30;6.50;;;;;;;18.43;90.33;98174.95;105224;1269;62053;-73
2022/07/26 02:06:26;;;;;;;9.80;7.00;;;;;;;18.43;90.44;98176.20;105209;1271;62081;-73
2022/07/26 02:08:52;;;;;;;7.90;6.90;;;;;;;18.42;90.45;98174.86;105249;1269;62157;-73
2022/07/26 02:11:17;;;;;;;8.90;6.30;;;;;;;18.40;90.55;98179.05;105253;1271;62321;-73
2022/07/26 02:13:44;;;;;;;7.00;6.30;;;;;;;18.38;90.45;98176.23;105214;1270;62136;-73
2022/07/26 02:16:13;;;;;;;7.90;6.10;;;;;;;18.38;90.92;98176.46;105275;1268;62096;-72
2022/07/26 02:18:39;;;;;;;7.50;6.20;;;;;;;18.36;91.04;98169.11;105385;1270;75376;-73
2022/07/26 02:21:06;;;;;;;8.00;6.30;;;;;;;18.36;91.17;98169.12;105257;1269;62093;-74
2022/07/26 02:23:33;;;;;;;7.30;6.40;;;;;;;18.35;91.40;98166.33;105455;1268;73320;-73
2022/07/26 02:26:00;;;;;;;6.90;6.30;;;;;;;18.36;91.62;98165.14;105264;1271;62116;-74
2022/07/26 02:28:27;;;;;;;8.20;7.30;;;;;;;18.36;92.00;98163.69;105265;1271;62065;-72
2022/07/26 02:30:53;;;;;;;8.50;6.70;;;;;;;18.35;91.93;98159.28;105250;1269;76347;-72
2022/07/26 02:33:19;;;;;;;9.30;7.30;;;;;;;18.34;92.12;98156.16;105242;1270;63945;-73
2022/07/26 02:35:46;;;;;;;10.50;6.70;;;;;;;18.33;92.14;98153.48;104903;1271;62081;-73
2022/07/26 02:38:14;;;;;;;9.10;6.60;;;;;;;18.32;92.37;98147.30;105361;1271;62255;-72
2022/07/26 02:40:41;;;;;;;8.90;6.70;;;;;;;18.31;92.62;98143.30;105265;1271;62492;-72
2022/07/26 02:43:08;;;;;;;10.70;7.30;;;;;;;18.31;92.83;98141.98;105233;1271;77283;-73
2022/07/26 02:45:35;;;;;;;7.40;6.70;;;;;;;18.32;93.30;98141.53;105254;1271;70226;-73
2022/07/26 02:48:01;;;;;;;8.80;6.80;;;;;;;18.31;93.23;98140.13;105268;1271;73394;-73
2022/07/26 02:50:28;;;;;;;9.80;6.70;;;;;;;18.33;93.35;98140.62;105258;1271;62065;-74
2022/07/26 02:52:54;;;;;;;8.10;7.30;;;;;;;18.36;93.57;98139.48;105348;1271;62053;-73
2022/07/26 02:55:23;;;;;;;7.40;6.50;;;;;;;18.37;93.59;98137.01;105261;1271;62161;-72
2022/07/26 02:57:49;;;;;;;13.40;6.70;;;;;;;18.37;93.89;98138.22;105276;1270;69258;-72
2022/07/26 03:00:19;;;;;;;11.70;7.50;;;;;;;18.38;94.00;98135.63;105262;1270;62248;-72
2022/07/26 03:02:47;;;;;;;9.70;6.70;;;;;;;18.37;94.22;98139.30;105328;1271;62374;-72
2022/07/26 03:05:13;;;;;;;9.50;7.10;;;;;;;18.38;94.46;98135.95;105248;1271;62517;-72
2022/07/26 03:07:40;;;;;;;8.40;7.30;;;;;;;18.40;94.65;98130.16;105207;1270;63981;-72
2022/07/26 03:10:06;;;;;;;11.50;7.00;;;;;;;18.41;94.79;98132.30;105227;1271;62184;-72
2022/07/26 03:12:33;;;;;;;8.90;7.20;;;;;;;18.43;94.72;98128.35;105249;1269;62092;-72
2022/07/26 03:14:59;;;;;;;10.90;7.10;;;;;;;18.43;94.40;98128.33;105324;1271;62158;-73
2022/07/26 03:17:25;;;;;;;10.10;7.40;;;;;;;18.43;94.59;98128.38;105020;1271;62465;-72
2022/07/26 03:19:51;;;;;;;7.40;6.70;;;;;;;18.42;94.54;98128.11;105213;1270;62173;-72
2022/07/26 03:22:18;;;;;;;15.30;7.00;;;;;;;18.44;94.71;98123.84;105048;1271;62095;-71
2022/07/26 03:24:43;;;;;;;13.40;7.70;;;;;;;18.48;94.59;98125.00;105182;1270;62187;-72
2022/07/26 03:27:10;;;;;;;7.80;7.00;;;;;;;18.55;94.63;98126.08;105236;1270;62190;-73
2022/07/26 03:29:36;;;;;;;8.20;7.00;;;;;;;18.62;94.38;98121.88;105176;1268;62058;-72
2022/07/26 03:32:02;;;;;;;8.90;6.80;;;;;;;18.65;94.06;98118.86;105235;1269;62196;-72
2022/07/26 03:34:28;;;;;;;7.90;6.60;;;;;;;18.67;94.15;98111.64;105186;1271;61950;-73
2022/07/26 03:36:54;;;;;;;8.20;6.20;;;;;;;18.70;93.89;98114.23;105236;1271;62181;-74
2022/07/26 03:39:20;;;;;;;6.80;6.10;;;;;;;18.72;93.83;98108.50;105236;1269;62065;-72
2022/07/26 03:41:45;;;;;;;8.90;7.20;;;;;;;18.71;93.99;98100.91;105237;1271;62173;-74
2022/07/26 03:44:11;;;;;;;8.70;7.90;;;;;;;18.73;94.19;98101.96;105277;1269;62069;-73
2022/07/26 03:46:37;;;;;;;9.60;8.00;;;;;;;18.73;94.30;98098.39;105255;1268;62454;-73
2022/07/26 03:49:03;;;;;;;10.50;8.90;;;;;;;18.74;94.15;98101.45;105238;1268;62094;-73
2022/07/26 03:51:32;;;;;;;8.60;7.80;;;;;;;18.75;93.98;98097.29;105230;1269;62491;-74
2022/07/26 03:53:59;;;;;;;8.20;7.40;;;;;;;18.77;93.78;98100.29;105221;1271;62120;-74
2022/07/26 03:56:30;;;;;;;11.30;7.60;;;;;;;18.80;93.71;98099.21;105256;1271;62022;-74
2022/07/26 03:58:59;;;;;;;9.00;6.80;;;;;;;18.88;93.74;98097.92;105280;1268;74221;-73
2022/07/26 04:01:25;;;;;;;10.90;7.00;;;;;;;18.95;93.48;98097.77;105224;1271;62118;-74
2022/07/26 04:03:52;;;;;;;7.20;6.20;;;;;;;19.01;93.08;98101.05;105320;1268;61980;-73
2022/07/26 04:06:18;;;;;;;8.10;7.10;;;;;;;19.05;92.46;98103.79;105248;1268;62161;-74
2022/07/26 04:08:44;;;;;;;8.10;7.20;;;;;;;19.08;92.16;98101.19;105215;1271;62160;-72
2022/07/26 04:11:10;;;;;;;9.30;7.00;;;;;;;19.11;92.02;98101.16;105320;1271;62180;-73
2022/07/26 04:13:36;;;;;;;7.40;6.70;;;;;;;19.15;91.82;98098.33;104956;1271;62103;-73
2022/07/26 04:16:03;;;;;;;8.20;7.20;;;;;;;19.20;91.36;98100.65;105311;1268;62183;-71
2022/07/26 04:18:29;;;;;;;7.10;6.20;;;;;;;19.27;90.99;98097.66;105291;1269;62575;-70
2022/07/26 04:20:55;;;;;;;9.10;7.10;;;;;;;19.36;90.51;98098.31;105295;1268;62176;-73
2022/07/26 04:23:22;;;;;;;13.00;6.80;;;;;;;19.46;90.27;98099.72;105275;1269;62099;-72
2022/07/26 04:25:48;;;;;;;7.70;6.90;;;;;;;19.59;89.59;98097.22;105297;1269;62191;-71
2022/07/26 04:28:14;;;;;;;13.10;7.80;;;;;;;19.68;89.29;98095.55;105260;1269;62112;-72
2022/07/26 04:30:43;;;;;;;10.40;6.80;;;;;;;19.80;89.01;98091.41;105269;1270;62235;-72
2022/07/26 04:33:08;;;;;;;8.20;6.90;;;;;;;19.94;88.49;98090.67;105278;1269;62184;-72
2022/07/26 04:35:35;;;;;;;9.10;7.40;;;;;;;20.08;88.00;98095.80;105238;1269;62184;-75
2022/07/26 04:38:02;;;;;;;12.20;7.30;;;;;;;20.28;87.69;98095.71;105266;1271;62260;-72
2022/07/26 04:40:32;;;;;;;12.10;7.50;;;;;;;20.68;86.93;98096.84;105328;1271;62171;-72
2022/07/26 04:43:00;;;;;;;9.10;7.60;;;;;;;21.07;85.75;98097.73;105317;1271;77406;-71
2022/07/26 04:45:27;;;;;;;13.40;7.80;;;;;;;21.33;84.67;98095.83;105321;1271;69704;-72
2022/07/26 04:47:53;;;;;;;9.10;7.30;;;;;;;21.43;84.09;98091.86;105295;1271;74134;-74
2022/07/26 04:50:21;;;;;;;9.10;6.80;;;;;;;21.57;83.54;98091.92;105267;1271;62106;-72
2022/07/26 04:52:51;;;;;;;11.80;6.60;;;;;;;21.72;83.11;98088.11;105290;1271;62402;-73
2022/07/26 04:55:17;;;;;;;;;;;;;;;21.95;82.47;98089.17;105305;1268;76407;-72
2022/07/26 04:57:45;;;;;;;8.60;6.50;;;;;;;22.06;81.81;98089.38;105294;1271;69544;-72
2022/07/26 05:00:13;;;;;;;9.50;6.70;;;;;;;22.19;81.15;98090.69;105282;1271;73312;-75
2022/07/26 05:02:39;;;;;;;10.10;6.50;;;;;;;22.38;80.84;98087.90;105448;1271;62056;-71
2022/07/26 05:05:07;;;;;;;8.70;6.60;;;;;;;22.56;79.86;98094.38;105311;1271;62043;-75
2022/07/26 05:07:47;;;;;;;7.00;6.30;;;;;;;22.94;78.22;98093.15;105272;1271;75591;-72
2022/07/26 05:10:16;;;;;;;7.20;5.80;;;;;;;23.70;75.76;98098.77;105399;1271;69268;-72
2022/07/26 05:12:42;;;;;;;7.50;6.80;;;;;;;24.04;74.01;98106.45;105333;1271;74475;-72
2022/07/26 05:15:09;;;;;;;8.00;6.20;;;;;;;24.22;73.12;98109.39;105477;1271;62154;-73
2022/07/26 05:17:39;;;;;;;7.50;5.80;;;;;;;24.40;72.71;98118.59;105974;1269;61966;-73
2022/07/26 05:20:07;;;;;;;;;;;;;;;24.28;72.51;98136.58;105518;1271;75920;-71
2022/07/26 05:22:36;;;;;;;8.00;5.90;;;;;;;24.07;72.09;98145.73;105164;1271;70670;-71
2022/07/26 05:25:05;;;;;;;8.80;6.20;;;;;;;23.90;72.68;98155.55;105244;1270;73910;-71
2022/07/26 05:27:31;;;;;;;7.00;5.50;;;;;;;23.71;72.22;98164.62;105087;1270;62428;-71
2022/07/26 05:29:57;;;;;;;7.40;6.00;;;;;;;23.49;72.22;98174.98;105262;1271;62193;-72
2022/07/26 05:32:23;;;;;;;7.90;5.90;;;;;;;23.34;73.34;98181.01;105250;1271;62081;-72
2022/07/26 05:34:49;;;;;;;9.20;6.20;;;;;;;23.21;74.00;98191.70;105249;1268;62141;-72
2022/07/26 05:37:15;;;;;;;8.30;5.90;;;;;;;23.08;74.14;98214.69;105234;1268;62177;-71
2022/07/26 05:39:41;;;;;;;11.90;6.80;;;;;;;22.86;74.34;98214.46;105225;1268;62639;-70
2022/07/26 05:42:07;;;;;;;12.50;6.30;;;;;;;22.67;74.60;98213.81;105258;1269;62193;-71
2022/07/26 05:44:33;;;;;;;13.40;6.80;;;;;;;22.63;75.18;98222.88;105221;1270;62159;-71
2022/07/26 05:46:59;;;;;;;9.60;7.80;;;;;;;22.58;75.46;98224.41;105250;1270;62193;-72
2022/07/26 05:49:25;;;;;;;12.80;7.40;;;;;;;22.57;75.78;98210.03;105275;1271;62200;-71
2022/07/26 05:51:51;;;;;;;11.70;7.70;;;;;;;22.70;76.22;98201.30;105260;1269;62066;-71
2022/07/26 05:54:19;;;;;;;9.00;7.50;;;;;;;22.84;76.81;98194.85;105242;1269;62174;-77
2022/07/26 05:56:48;;;;;;;10.10;7.50;;;;;;;22.98;77.13;98194.81;105156;1271;67665;-72
2022/07/26 05:59:14;;;;;;;10.10;8.10;;;;;;;23.15;77.07;98203.48;105219;1268;74302;-75
2022/07/26 06:01:41;;;;;;;13.40;8.90;;;;;;;23.33;76.41;98214.84;105106;1269;62105;-72
2022/07/26 06:04:07;;;;;;;16.50;9.10;;;;;;;23.49;75.72;98216.15;105244;1271;62188;-71
2022/07/26 06:06:33;;;;;;;10.10;8.50;;;;;;;23.65;75.53;98207.63;105047;1271;62193;-71
2022/07/26 06:08:59;;;;;;;10.10;8.40;;;;;;;23.86;74.74;98202.25;105227;1271;62183;-71
2022/07/26 06:11:25;;;;;;;8.70;7.70;;;;;;;24.06;74.04;98206.95;105217;1268;62710;-70
2022/07/26 06:13:51;;;;;;;9.30;7.90;;;;;;;24.34;73.34;98208.68;105005;1271;62336;-72
2022/07/26 06:16:17;;;;;;;7.80;7.10;;;;;;;25.10;70.22;98211.70;105230;1271;62174;-71
2022/07/26 06:18:44;;;;;;;8.00;7.20;;;;;;;26.04;67.91;98211.58;105175;1269;62127;-72
2022/07/26 06:21:10;;;;;;;8.30;6.90;;;;;;;26.92;66.13;98210.02;105224;1271;62154;-71
2022/07/26 06:23:36;;;;;;;10.60;7.40;;;;;;;27.76;64.27;98213.91;105236;1271;62176;-72
2022/07/26 06:26:03;;;;;;;10.60;7.30;;;;;;;28.46;61.22;98214.95;105198;1269;62159;-71
2022/07/26 06:28:29;;;;;;;9.60;7.50;;;;;;;29.02;57.91;98222.61;104950;1271;76008;-71
2022/07/26 06:30:55;;;;;;;8.70;7.00;;;;;;;29.47;56.25;98232.32;105186;1268;62178;-71
2022/07/26 06:33:21;;;;;;;7.50;6.80;;;;;;;29.93;55.27;98235.27;105209;1268;62071;-72
2022/07/26 06:35:47;;;;;;;8.30;7.10;;;;;;;30.27;52.82;98238.85;105200;1268;62122;-71
2022/07/26 06:38:14;;;;;;;8.30;6.70;;;;;;;30.36;49.87;98243.53;104953;1271;62415;-71
2022/07/26 06:40:39;;;;;;;7.80;7.00;;;;;;;30.40;49.44;98253.04;105234;1271;62105;-69
2022/07/26 06:43:05;;;;;;;9.80;7.30;;;;;;;30.44;48.57;98259.66;105233;1271;62088;-73
2022/07/26 06:45:32;;;;;;;7.20;6.60;;;;;;;30.51;47.56;98264.52;105207;1270;62186;-70
2022/07/26 06:47:58;;;;;;;12.30;6.50;;;;;;;30.29;45.82;98266.15;105210;1271;62141;-72
2022/07/26 06:50:24;;;;;;;10.00;7.40;;;;;;;30.03;46.87;98271.98;105082;1271;62536;-72
2022/07/26 06:52:50;;;;;;;10.70;7.00;;;;;;;30.14;47.74;98278.46;105229;1270;62188;-71
2022/07/26 06:55:17;;;;;;;7.70;6.90;;;;;;;30.12;47.56;98276.33;105228;1270;72286;-72
2022/07/26 06:57:42;;;;;;;9.20;7.20;;;;;;;29.89;46.55;98281.24;105219;1271;62120;-72
2022/07/26 07:00:12;;;;;;;7.10;6.40;;;;;;;29.68;47.59;98285.05;105236;1271;62518;-72
2022/07/26 07:02:38;;;;;;;7.90;6.90;;;;;;;29.59;48.17;98294.38;105198;1268;76963;-72
2022/07/26 07:05:04;;;;;;;10.90;7.60;;;;;;;29.49;48.28;98296.06;105246;1271;62165;-72
2022/07/26 07:07:33;;;;;;;7.90;7.20;;;;;;;29.26;48.88;98306.20;105233;1271;73309;-71
2022/07/26 07:09:59;;;;;;;8.30;7.60;;;;;;;28.75;50.29;98312.13;105193;1269;62093;-72
2022/07/26 07:12:25;;;;;;;9.10;8.40;;;;;;;28.49;51.95;98318.66;105225;1269;62129;-71
2022/07/26 07:14:51;;;;;;;8.50;7.70;;;;;;;28.21;52.57;98329.13;105258;1270;62145;-71
2022/07/26 07:17:19;;;;;;;9.60;8.80;;;;;;;27.97;53.58;98334.23;105248;1269;62647;-71
2022/07/26 07:19:44;;;;;;;9.50;8.60;;;;;;;27.79;54.29;98344.22;105203;1268;62206;-71
2022/07/26 07:22:11;;;;;;;10.00;9.10;;;;;;;27.60;54.94;98351.96;105196;1270;62075;-71
2022/07/26 07:24:37;;;;;;;11.50;10.50;;;;;;;27.36;55.93;98364.91;105219;1271;62113;-71
2022/07/26 07:27:03;;;;;;;13.70;10.40;;;;;;;27.00;57.28;98369.52;105269;1268;62159;-72
2022/07/26 07:29:30;;;;;;;12.30;11.10;;;;;;;26.88;58.27;98381.59;105197;1270;62164;-71
2022/07/26 07:31:56;;;;;;;12.30;11.20;;;;;;;26.59;59.11;98389.88;105217;1268;62286;-71
2022/07/26 07:34:21;;;;;;;14.00;11.60;;;;;;;26.23;60.86;98397.55;105236;1270;62191;-71
2022/07/26 07:36:49;;;;;;;11.40;10.50;;;;;;;25.82;62.20;98406.16;105234;1269;62107;-71
2022/07/26 07:39:16;;;;;;;12.80;11.70;;;;;;;25.44;64.28;98414.17;105202;1270;62709;-71
2022/07/26 07:41:43;;;;;;;12.90;11.80;;;;;;;25.14;65.80;98417.05;105254;1271;62064;-71
2022/07/26 07:44:09;;;;;;;14.00;12.70;;;;;;;24.98;66.97;98416.79;105214;1269;62079;-71
2022/07/26 07:46:35;;;;;;;12.90;11.60;;;;;;;24.89;67.77;98419.52;105250;1271;62348;-72
2022/07/26 07:49:01;;;;;;;12.80;11.70;;;;;;;24.83;68.81;98420.85;105232;1271;62211;-71
2022/07/26 07:51:27;;;;;;;13.50;12.40;;;;;;;24.82;69.30;98422.45;105225;1268;62147;-72
2022/07/26 07:53:54;;;;;;;14.00;12.80;;;;;;;24.85;69.84;98423.94;105224;1271;62113;-71
2022/07/26 07:56:20;;;;;;;13.50;12.50;;;;;;;24.75;69.77;98429.61;105221;1271;62187;-71
2022/07/26 07:58:46;;;;;;;14.10;12.80;;;;;;;24.69;70.67;98431.73;105210;1269;62186;-70
2022/07/26 08:01:12;;;;;;;14.90;13.70;;;;;;;24.66;71.11;98436.70;105258;1269;62187;-70
2022/07/26 08:03:38;;;;;;;14.60;13.40;;;;;;;24.64;71.74;98435.95;105218;1270;68810;-71
2022/07/26 08:06:07;;;;;;;15.20;13.90;;;;;;;24.43;72.88;98435.21;105215;1269;62626;-71
2022/07/26 08:08:34;;;;;;;15.80;14.40;;;;;;;24.26;73.65;98436.54;105264;1271;62236;-71
2022/07/26 08:11:00;;;;;;;15.70;14.40;;;;;;;24.22;74.07;98437.14;105342;1270;62046;-72
2022/07/26 08:13:26;;;;;;;15.60;14.30;;;;;;;24.27;74.46;98440.48;104935;1271;62241;-71
2022/07/26 08:15:54;;;;;;;15.60;14.30;;;;;;;24.37;74.53;98447.01;105190;1271;62088;-71
2022/07/26 08:18:22;;;;;;;14.70;13.50;;;;;;;24.35;74.55;98446.74;105261;1269;74285;-71
2022/07/26 08:20:50;;;;;;;16.30;15.10;;;;;;;24.15;75.46;98438.38;105232;1270;62080;-71
2022/07/26 08:23:17;;;;;;;16.50;15.10;;;;;;;23.92;75.97;98446.94;105349;1271;62091;-72
2022/07/26 08:25:43;;;;;;;16.60;15.30;;;;;;;23.78;76.87;98447.64;104986;1271;76218;-71
2022/07/26 08:28:11;;;;;;;15.60;14.30;;;;;;;23.67;77.64;98449.70;105206;1269;62236;-71
2022/07/26 08:30:37;;;;;;;15.70;14.20;;;;;;;23.45;79.54;98450.32;105234;1271;73484;-71
2022/07/26 08:33:03;;;;;;;16.00;14.60;;;;;;;23.27;80.00;98454.88;105208;1271;62106;-70
2022/07/26 08:35:30;;;;;;;16.20;14.70;;;;;;;23.21;80.65;98454.95;105226;1271;62155;-70
2022/07/26 08:37:58;;;;;;;15.20;13.90;;;;;;;23.14;81.84;98459.79;105207;1271;62181;-70
2022/07/26 08:40:23;;;;;;;15.70;14.30;;;;;;;23.06;82.83;98461.26;105216;1271;68751;-71
2022/07/26 08:42:52;;;;;;;15.20;13.80;;;;;;;23.05;84.01;98463.43;105201;1271;62164;-72
2022/07/26 08:45:25;;;;;;;13.80;12.60;;;;;;;23.10;84.23;98463.60;105309;1269;62110;-72
2022/07/26 08:47:52;;;;;;;14.70;13.40;;;;;;;23.06;85.09;98465.58;105036;1271;62170;-71
2022/07/26 08:50:20;;;;;;;14.90;13.70;;;;;;;22.99;84.80;98466.41;105069;1271;76057;-71
2022/07/26 08:52:46;;;;;;;15.90;14.50;;;;;;;23.06;85.10;98467.75;105371;1271;70484;-72
2022/07/26 08:55:20;;;;;;;15.80;14.60;;;;;;;23.07;85.77;98474.10;105412;1271;73320;-72
2022/07/26 08:57:47;;;;;;;15.90;14.60;;;;;;;22.89;87.61;98471.92;105407;1269;62049;-71
2022/07/26 09:00:29;;;;;;;16.10;14.70;;;;;;;22.75;88.20;98480.52;105279;1271;62113;-72
2022/07/26 09:02:58;;;;;;;16.00;14.50;;;;;;;22.67;88.66;98491.96;105626;1271;75601;-72
2022/07/26 09:05:32;;;;;;;15.40;14.10;;;;;;;22.68;88.62;98496.19;105374;1271;69516;-73
2022/07/26 09:08:00;;;;;;;16.50;15.10;;;;;;;22.70;88.99;98496.88;105243;1271;74536;-71
2022/07/26 09:10:27;;;;;;;17.30;15.90;;;;;;;22.69;89.82;98495.67;105324;1271;62120;-72
2022/07/26 09:12:55;;;;;;;16.70;15.20;;;;;;;22.65;90.12;98495.69;105205;1271;62160;-72
2022/07/26 09:15:26;;;;;;;15.50;14.10;;;;;;;22.68;89.99;98499.27;105241;1271;75983;-72
2022/07/26 09:17:55;;;;;;;17.00;15.60;;;;;;;22.73;90.49;98501.72;105257;1271;69175;-72
2022/07/26 09:20:23;;;;;;;17.00;15.30;;;;;;;22.78;89.95;98506.95;105365;1271;73409;-72
2022/07/26 09:23:07;;;;;;;16.60;15.30;;;;;;;22.80;90.19;98513.53;105288;1271;62095;-71
2022/07/26 09:25:38;;;;;;;15.90;14.40;;;;;;;22.76;89.99;98515.59;104973;1271;62176;-72
2022/07/26 09:28:20;;;;;;;15.60;14.30;;;;;;;22.81;90.26;98519.81;105166;1271;77294;-71
2022/07/26 09:31:04;;;;;;;16.10;14.70;;;;;;;22.78;90.11;98522.84;105224;1271;67719;-72
2022/07/26 09:33:48;;;;;;;14.60;13.40;;;;;;;22.79;90.11;98524.30;105279;1271;73314;-72
2022/07/26 09:36:16;;;;;;;15.90;14.60;;;;;;;22.89;90.34;98523.92;105400;1271;62640;-73
2022/07/26 09:38:47;;;;;;;16.20;14.90;;;;;;;22.96;90.19;98533.66;105273;1270;62253;-73
2022/07/26 09:41:22;;;;;;;15.10;13.80;;;;;;;22.92;90.09;98539.45;105386;1271;76409;-72
2022/07/26 09:43:49;;;;;;;16.20;14.70;;;;;;;22.83;90.36;98540.67;105249;1271;69467;-71
2022/07/26 09:46:16;;;;;;;13.60;12.50;;;;;;;22.81;90.24;98539.46;104950;1269;389372;-72
2022/07/26 09:48:43;;;;;;;13.60;12.50;;;;;;;22.76;90.99;98539.71;105359;1271;62195;-72
2022/07/26 09:51:09;;;;;;;13.20;12.00;;;;;;;22.67;91.35;98541.77;105276;1271;62075;-72
2022/07/26 09:53:42;;;;;;;14.30;13.00;;;;;;;22.58;91.45;98546.52;105243;1271;62186;-71
2022/07/26 09:56:09;;;;;;;14.50;13.20;;;;;;;22.50;92.21;98549.39;105294;1270;68259;-72
2022/07/26 09:58:37;;;;;;;14.00;12.60;;;;;;;22.43;92.98;98555.48;105296;1271;62138;-71
2022/07/26 10:01:05;;;;;;;13.30;12.10;;;;;;;22.35;93.83;98557.38;105294;1269;61989;-71
2022/07/26 10:03:32;;;;;;;13.10;12.00;;;;;;;22.24;94.35;98565.34;105453;1271;62519;-72
2022/07/26 10:06:00;;;;;;;14.30;12.80;;;;;;;22.18;95.60;98565.92;105521;1271;75442;-72
2022/07/26 10:08:27;;;;;;;16.20;14.20;;;;;;;22.08;97.13;98570.67;105353;1271;69231;-71
2022/07/26 10:11:05;;;;;;;14.10;12.80;;;;;;;21.99;97.32;98575.22;105273;1271;74390;-71
2022/07/26 10:13:31;;;;;;;14.50;13.10;;;;;;;21.96;98.62;98582.02;105245;1271;62276;-72
2022/07/26 10:15:58;;;;;;;12.90;11.80;;;;;;;21.94;98.68;98580.65;105349;1271;62059;-72
2022/07/26 10:18:36;;;;;;;13.10;12.00;;;;;;;21.96;98.85;98584.48;105319;1268;62068;-72
2022/07/26 10:21:13;;;;;;;12.70;11.60;;;;;;;21.97;99.34;98586.04;105251;1269;69332;-73
2022/07/26 10:23:41;;;;;;;13.10;12.10;;;;;;;21.90;99.88;98581.02;105262;1270;74135;-72
2022/07/26 10:26:10;;;;;;;13.30;12.20;;;;;;;21.85;100.00;98581.14;105381;1269;62117;-71
2022/07/26 10:28:38;;;;;;;14.20;12.90;;;;;;;21.80;100.00;98585.54;105058;1272;62101;-73
2022/07/26 10:31:20;;;;;;;12.80;11.60;;;;;;;21.70;100.00;98584.54;105338;1268;76082;-72
2022/07/26 10:33:48;;;;;;;13.10;12.00;;;;;;;21.67;100.00;98592.84;105365;1269;69529;-70
2022/07/26 10:36:26;;;;;;;13.10;11.90;;;;;;;21.69;100.00;98595.80;105243;1268;74166;-71
2022/07/26 10:39:01;;;;;;;13.60;12.40;;;;;;;21.68;100.00;98595.24;104974;1271;62110;-70
2022/07/26 10:41:37;;;;;;;12.50;11.40;;;;;;;21.66;100.00;98590.61;105222;1271;62177;-70
2022/07/26 10:44:15;;;;;;;11.80;10.80;;;;;;;21.62;100.00;98588.25;105214;1268;76070;-72
2022/07/26 10:47:07;;;;;;;11.60;10.70;;;;;;;21.59;100.00;98590.98;105124;1270;68670;-70
2022/07/26 10:49:38;;;;;;;11.70;10.60;;;;;;;21.45;100.00;98595.77;105247;1271;74636;-70
2022/07/26 10:52:09;;;;;;;12.10;10.90;;;;;;;21.38;100.00;98598.15;105311;1271;62181;-70
2022/07/26 10:55:02;;;;;;;12.10;11.10;;;;;;;21.27;100.00;98600.80;105283;1268;62192;-69
2022/07/26 10:57:29;;;;;;;11.60;10.50;;;;;;;21.25;100.00;98600.38;105277;1269;76548;-70
2022/07/26 10:59:56;;;;;;;12.30;11.10;;;;;;;21.20;100.00;98598.92;105271;1268;70886;-70
2022/07/26 11:02:26;;;;;;;12.00;11.00;;;;;;;21.17;100.00;98596.02;105338;1268;73750;-70
2022/07/26 11:05:02;;;;;;;;;;;;;;;21.18;100.00;98598.80;105405;1268;62181;-71
2022/07/26 11:07:31;;;;;;;11.90;10.90;;;;;;;21.21;100.00;98597.59;105189;1271;62141;-71
2022/07/26 11:09:58;;;;;;;12.90;11.80;;;;;;;21.22;100.00;98595.56;105223;1271;62158;-71
2022/07/26 11:12:24;;;;;;;13.50;12.40;;;;;;;21.26;100.00;98596.23;105329;1271;69644;-70
2022/07/26 11:14:53;;;;;;;11.60;10.60;;;;;;;21.34;100.00;98593.66;104941;1271;62083;-70
2022/07/26 11:17:29;;;;;;;12.20;11.10;;;;;;;21.36;100.00;98598.70;105301;1268;62050;-70
2022/07/26 11:19:56;;;;;;;11.60;10.60;;;;;;;21.37;100.00;98596.08;105314;1271;62845;-71
2022/07/26 11:22:33;;;;;;;12.00;10.80;;;;;;;21.33;100.00;98596.48;105319;1268;76175;-71